Durham, Oklahoma
Current Conditions -  °F | °C
As of 4:15 AM on Monday 26 Jan 2015 (Local Time) from KHHF Reporting Station
Clear Clear  
Wind Chill: 36°   Ceiling: Unl
Heat Index: 42°   Visibility: 10mi
Dew Point: 34°   Wind: 9mph
Humidity: 74%   Direction: 260°W
Pressure: 30.18"   Gusts: NA
Location:  35.84°N, 99.92°W
Report Text: KHHF 261015Z AUTO 26008KT 10SM CLR 06/01 A3018 RMK AO2 T00550012
Loading
Personal Weather Stations






























Interactive Weather Map New forecast layout! Learn more

10-Day Weather Forecast

Advertisements
Track Severe Weather on mobile